Stettler, Canada
Current Conditions -  °F | °C
As of 1:00 PM on Monday 26 Jan 2015 (Local Time) from CYQF Reporting Station
Overcast Overcast  
Wind Chill: 36°   Ceiling: 16000
Heat Index: 36°   Visibility: 15mi
Dew Point: 30°   Wind: 2mph
Humidity: 81%   Direction: 350°N
Pressure: 29.81"   Gusts: NA
Location:  52.33°N, 112.68°W
Report Text: CYQF 262000Z 35002KT 15SM OVC160 02/M01 A2981 RMK AC8 SLP132
Loading
Personal Weather Stations






























Interactive Weather Map New forecast layout! Learn more

10-Day Weather Forecast

Advertisements
Track Severe Weather on mobile